Terminal Aerodrome Forecast
Issued by NWS

Home | Current Version | Previous Version | Text Only | Print | Product List | Glossary On
Versions: 1 2 3 4 5 6 7 8 9 10 11 12 13 14 15
801
FTUS42 KMHX 291324 AAA
TAFISO
TAF AMD
KISO 291324Z 2913/3012 VRB04KT 5SM TSRA BKN025CB
     FM291500 14006KT P6SM VCTS SCT030CB BKN080
     FM291700 17007KT P6SM VCTS SCT030CB BKN050
     FM292100 16008KT P6SM BKN040
     FM300200 VRB04KT P6SM SCT250
     FM300600 VRB04KT 3SM BR SCT250
      AMD LTD TO CLD VIS AND WIND=

USA.gov is the U.S. government's official web portal to all federal, state and local government web resources and services.